sensor_id;sensor_type;location;lat;lon;timestamp;P1;durP1;ratioP1;P2;durP2;ratioP2
80398;SDS011;69722;48.642;9.142;2023-05-07T00:00:06;3.95;;;2.55;;
80398;SDS011;69722;48.642;9.142;2023-05-07T00:02:34;4.85;;;2.17;;
80398;SDS011;69722;48.642;9.142;2023-05-07T00:05:01;6.35;;;2.50;;
80398;SDS011;69722;48.642;9.142;2023-05-07T00:07:27;5.20;;;2.58;;
80398;SDS011;69722;48.642;9.142;2023-05-07T00:09:52;3.30;;;2.47;;
80398;SDS011;69722;48.642;9.142;2023-05-07T00:12:18;3.37;;;2.20;;
80398;SDS011;69722;48.642;9.142;2023-05-07T00:14:43;5.20;;;2.60;;
80398;SDS011;69722;48.642;9.142;2023-05-07T00:17:08;7.47;;;2.47;;
80398;SDS011;69722;48.642;9.142;2023-05-07T00:19:34;4.57;;;2.17;;
80398;SDS011;69722;48.642;9.142;2023-05-07T00:21:59;5.93;;;2.30;;
80398;SDS011;69722;48.642;9.142;2023-05-07T00:24:24;6.57;;;2.77;;
80398;SDS011;69722;48.642;9.142;2023-05-07T00:26:50;4.60;;;2.70;;
80398;SDS011;69722;48.642;9.142;2023-05-07T00:29:15;3.93;;;2.87;;
80398;SDS011;69722;48.642;9.142;2023-05-07T00:31:41;4.28;;;2.40;;
80398;SDS011;69722;48.642;9.142;2023-05-07T00:34:06;3.27;;;2.27;;
80398;SDS011;69722;48.642;9.142;2023-05-07T00:36:31;6.53;;;2.50;;
80398;SDS011;69722;48.642;9.142;2023-05-07T00:38:58;9.13;;;2.97;;
80398;SDS011;69722;48.642;9.142;2023-05-07T00:41:25;7.78;;;2.70;;
80398;SDS011;69722;48.642;9.142;2023-05-07T00:43:50;5.00;;;2.30;;
80398;SDS011;69722;48.642;9.142;2023-05-07T00:46:16;5.18;;;2.38;;
80398;SDS011;69722;48.642;9.142;2023-05-07T00:48:42;3.30;;;2.67;;
80398;SDS011;69722;48.642;9.142;2023-05-07T00:51:07;3.47;;;2.53;;
80398;SDS011;69722;48.642;9.142;2023-05-07T00:53:33;4.67;;;2.47;;
80398;SDS011;69722;48.642;9.142;2023-05-07T00:55:59;3.83;;;2.33;;
80398;SDS011;69722;48.642;9.142;2023-05-07T00:58:25;5.57;;;2.55;;
80398;SDS011;69722;48.642;9.142;2023-05-07T01:00:51;4.03;;;2.47;;
80398;SDS011;69722;48.642;9.142;2023-05-07T01:03:16;4.68;;;2.70;;
80398;SDS011;69722;48.642;9.142;2023-05-07T01:05:42;5.55;;;2.17;;
80398;SDS011;69722;48.642;9.142;2023-05-07T01:08:08;5.15;;;2.70;;
80398;SDS011;69722;48.642;9.142;2023-05-07T01:10:33;4.55;;;2.53;;
80398;SDS011;69722;48.642;9.142;2023-05-07T01:12:59;4.90;;;3.00;;
80398;SDS011;69722;48.642;9.142;2023-05-07T01:15:25;6.35;;;2.72;;
80398;SDS011;69722;48.642;9.142;2023-05-07T01:17:50;5.03;;;2.87;;
80398;SDS011;69722;48.642;9.142;2023-05-07T01:20:15;6.73;;;2.70;;
80398;SDS011;69722;48.642;9.142;2023-05-07T01:22:43;13.65;;;4.05;;
80398;SDS011;69722;48.642;9.142;2023-05-07T01:25:08;8.13;;;2.70;;
80398;SDS011;69722;48.642;9.142;2023-05-07T01:27:34;5.30;;;2.42;;
80398;SDS011;69722;48.642;9.142;2023-05-07T01:30:01;3.53;;;2.55;;
80398;SDS011;69722;48.642;9.142;2023-05-07T01:32:29;6.47;;;2.70;;
80398;SDS011;69722;48.642;9.142;2023-05-07T01:37:26;6.72;;;2.53;;
80398;SDS011;69722;48.642;9.142;2023-05-07T01:39:52;5.38;;;2.33;;
80398;SDS011;69722;48.642;9.142;2023-05-07T01:42:17;6.32;;;2.80;;
80398;SDS011;69722;48.642;9.142;2023-05-07T01:44:43;4.53;;;2.60;;
80398;SDS011;69722;48.642;9.142;2023-05-07T01:47:08;4.80;;;2.63;;
80398;SDS011;69722;48.642;9.142;2023-05-07T01:49:34;8.77;;;4.07;;
80398;SDS011;69722;48.642;9.142;2023-05-07T01:51:59;17.63;;;6.22;;
80398;SDS011;69722;48.642;9.142;2023-05-07T01:54:25;6.15;;;2.25;;
80398;SDS011;69722;48.642;9.142;2023-05-07T01:56:55;5.85;;;2.70;;
80398;SDS011;69722;48.642;9.142;2023-05-07T01:59:21;7.57;;;2.85;;
80398;SDS011;69722;48.642;9.142;2023-05-07T02:01:46;5.20;;;2.53;;
80398;SDS011;69722;48.642;9.142;2023-05-07T02:04:12;6.50;;;2.78;;
80398;SDS011;69722;48.642;9.142;2023-05-07T02:06:37;7.93;;;2.80;;
80398;SDS011;69722;48.642;9.142;2023-05-07T02:09:03;5.90;;;2.57;;
80398;SDS011;69722;48.642;9.142;2023-05-07T02:11:28;7.50;;;2.70;;
80398;SDS011;69722;48.642;9.142;2023-05-07T02:13:54;5.65;;;2.38;;
80398;SDS011;69722;48.642;9.142;2023-05-07T02:16:19;6.53;;;4.00;;
80398;SDS011;69722;48.642;9.142;2023-05-07T02:18:45;12.13;;;2.90;;
80398;SDS011;69722;48.642;9.142;2023-05-07T02:21:10;4.72;;;2.58;;
80398;SDS011;69722;48.642;9.142;2023-05-07T02:23:35;9.03;;;3.03;;
80398;SDS011;69722;48.642;9.142;2023-05-07T02:26:00;4.75;;;2.63;;
80398;SDS011;69722;48.642;9.142;2023-05-07T02:28:26;3.30;;;2.43;;
80398;SDS011;69722;48.642;9.142;2023-05-07T02:30:52;7.33;;;2.80;;
80398;SDS011;69722;48.642;9.142;2023-05-07T02:33:17;5.47;;;2.97;;
80398;SDS011;69722;48.642;9.142;2023-05-07T02:35:43;6.65;;;3.05;;
80398;SDS011;69722;48.642;9.142;2023-05-07T02:38:08;7.80;;;2.37;;
80398;SDS011;69722;48.642;9.142;2023-05-07T02:43:03;5.65;;;2.92;;
80398;SDS011;69722;48.642;9.142;2023-05-07T02:45:29;4.65;;;2.47;;
80398;SDS011;69722;48.642;9.142;2023-05-07T02:47:54;4.47;;;2.65;;
80398;SDS011;69722;48.642;9.142;2023-05-07T02:50:20;3.88;;;2.60;;
80398;SDS011;69722;48.642;9.142;2023-05-07T02:52:45;5.30;;;2.67;;
80398;SDS011;69722;48.642;9.142;2023-05-07T02:55:12;6.93;;;2.58;;
80398;SDS011;69722;48.642;9.142;2023-05-07T02:57:37;5.70;;;2.50;;
80398;SDS011;69722;48.642;9.142;2023-05-07T03:00:15;5.80;;;2.33;;
80398;SDS011;69722;48.642;9.142;2023-05-07T03:02:42;4.28;;;2.55;;
80398;SDS011;69722;48.642;9.142;2023-05-07T03:05:07;5.68;;;2.30;;
80398;SDS011;69722;48.642;9.142;2023-05-07T03:07:34;5.55;;;2.38;;
80398;SDS011;69722;48.642;9.142;2023-05-07T03:10:00;3.60;;;2.30;;
80398;SDS011;69722;48.642;9.142;2023-05-07T03:12:25;3.53;;;2.40;;
80398;SDS011;69722;48.642;9.142;2023-05-07T03:14:51;6.80;;;2.47;;
80398;SDS011;69722;48.642;9.142;2023-05-07T03:17:16;6.03;;;2.43;;
80398;SDS011;69722;48.642;9.142;2023-05-07T03:19:41;3.47;;;2.20;;
80398;SDS011;69722;48.642;9.142;2023-05-07T03:22:06;7.40;;;1.93;;
80398;SDS011;69722;48.642;9.142;2023-05-07T03:24:32;8.63;;;2.57;;
80398;SDS011;69722;48.642;9.142;2023-05-07T03:26:57;3.25;;;2.15;;
80398;SDS011;69722;48.642;9.142;2023-05-07T03:29:23;6.60;;;2.20;;
80398;SDS011;69722;48.642;9.142;2023-05-07T03:31:48;4.40;;;2.08;;
80398;SDS011;69722;48.642;9.142;2023-05-07T03:34:14;4.30;;;2.30;;
80398;SDS011;69722;48.642;9.142;2023-05-07T03:36:40;5.75;;;2.70;;
80398;SDS011;69722;48.642;9.142;2023-05-07T03:39:05;4.07;;;2.72;;
80398;SDS011;69722;48.642;9.142;2023-05-07T03:41:31;2.97;;;2.20;;
80398;SDS011;69722;48.642;9.142;2023-05-07T03:43:57;3.20;;;2.35;;
80398;SDS011;69722;48.642;9.142;2023-05-07T03:46:22;3.42;;;2.33;;
80398;SDS011;69722;48.642;9.142;2023-05-07T03:48:50;8.15;;;2.70;;
80398;SDS011;69722;48.642;9.142;2023-05-07T03:51:16;4.37;;;2.43;;
80398;SDS011;69722;48.642;9.142;2023-05-07T03:53:41;3.00;;;2.03;;
80398;SDS011;69722;48.642;9.142;2023-05-07T03:56:06;4.60;;;2.77;;
80398;SDS011;69722;48.642;9.142;2023-05-07T03:58:32;3.27;;;2.10;;
80398;SDS011;69722;48.642;9.142;2023-05-07T04:00:57;4.93;;;2.13;;
80398;SDS011;69722;48.642;9.142;2023-05-07T04:03:22;4.23;;;2.33;;
80398;SDS011;69722;48.642;9.142;2023-05-07T04:05:49;3.17;;;2.17;;
80398;SDS011;69722;48.642;9.142;2023-05-07T04:08:14;3.55;;;2.90;;
80398;SDS011;69722;48.642;9.142;2023-05-07T04:10:39;5.27;;;2.17;;
80398;SDS011;69722;48.642;9.142;2023-05-07T04:13:05;4.43;;;2.20;;
80398;SDS011;69722;48.642;9.142;2023-05-07T04:15:30;4.93;;;2.22;;
80398;SDS011;69722;48.642;9.142;2023-05-07T04:17:55;5.50;;;2.97;;
80398;SDS011;69722;48.642;9.142;2023-05-07T04:20:21;2.73;;;1.80;;
80398;SDS011;69722;48.642;9.142;2023-05-07T04:22:46;5.97;;;2.33;;
80398;SDS011;69722;48.642;9.142;2023-05-07T04:25:11;3.93;;;2.10;;
80398;SDS011;69722;48.642;9.142;2023-05-07T04:27:37;3.97;;;2.03;;
80398;SDS011;69722;48.642;9.142;2023-05-07T04:30:02;3.72;;;2.25;;
80398;SDS011;69722;48.642;9.142;2023-05-07T04:32:29;4.15;;;2.50;;
80398;SDS011;69722;48.642;9.142;2023-05-07T04:34:55;3.40;;;2.20;;
80398;SDS011;69722;48.642;9.142;2023-05-07T04:37:21;2.92;;;2.05;;
80398;SDS011;69722;48.642;9.142;2023-05-07T04:39:46;2.80;;;2.10;;
80398;SDS011;69722;48.642;9.142;2023-05-07T04:42:15;3.07;;;2.20;;
80398;SDS011;69722;48.642;9.142;2023-05-07T04:44:41;3.20;;;1.88;;
80398;SDS011;69722;48.642;9.142;2023-05-07T04:47:07;3.83;;;2.05;;
80398;SDS011;69722;48.642;9.142;2023-05-07T04:49:33;3.43;;;2.17;;
80398;SDS011;69722;48.642;9.142;2023-05-07T04:51:58;3.57;;;2.30;;
80398;SDS011;69722;48.642;9.142;2023-05-07T04:54:23;3.17;;;2.23;;
80398;SDS011;69722;48.642;9.142;2023-05-07T04:56:50;3.58;;;2.25;;
80398;SDS011;69722;48.642;9.142;2023-05-07T04:59:15;3.37;;;2.00;;
80398;SDS011;69722;48.642;9.142;2023-05-07T05:01:40;3.93;;;2.30;;
80398;SDS011;69722;48.642;9.142;2023-05-07T05:04:06;3.63;;;2.30;;
80398;SDS011;69722;48.642;9.142;2023-05-07T05:06:31;2.73;;;1.90;;
80398;SDS011;69722;48.642;9.142;2023-05-07T05:08:57;4.40;;;2.20;;
80398;SDS011;69722;48.642;9.142;2023-05-07T05:11:22;8.43;;;2.20;;
80398;SDS011;69722;48.642;9.142;2023-05-07T05:13:47;3.53;;;2.20;;
80398;SDS011;69722;48.642;9.142;2023-05-07T05:16:16;3.88;;;2.00;;
80398;SDS011;69722;48.642;9.142;2023-05-07T05:18:41;3.90;;;2.20;;
80398;SDS011;69722;48.642;9.142;2023-05-07T05:21:06;3.10;;;2.20;;
80398;SDS011;69722;48.642;9.142;2023-05-07T05:23:32;3.53;;;2.03;;
80398;SDS011;69722;48.642;9.142;2023-05-07T05:25:57;3.40;;;2.10;;
80398;SDS011;69722;48.642;9.142;2023-05-07T05:28:23;3.35;;;2.17;;
80398;SDS011;69722;48.642;9.142;2023-05-07T05:30:48;3.20;;;2.10;;
80398;SDS011;69722;48.642;9.142;2023-05-07T05:33:14;2.88;;;2.08;;
80398;SDS011;69722;48.642;9.142;2023-05-07T05:35:39;3.47;;;2.20;;
80398;SDS011;69722;48.642;9.142;2023-05-07T05:38:05;3.47;;;1.95;;
80398;SDS011;69722;48.642;9.142;2023-05-07T05:40:30;3.57;;;2.10;;
80398;SDS011;69722;48.642;9.142;2023-05-07T05:42:55;4.00;;;2.00;;
80398;SDS011;69722;48.642;9.142;2023-05-07T05:45:21;4.97;;;2.47;;
80398;SDS011;69722;48.642;9.142;2023-05-07T05:47:46;5.03;;;1.80;;
80398;SDS011;69722;48.642;9.142;2023-05-07T05:50:11;3.03;;;2.10;;
80398;SDS011;69722;48.642;9.142;2023-05-07T05:52:37;3.37;;;2.10;;
80398;SDS011;69722;48.642;9.142;2023-05-07T05:55:02;2.85;;;2.15;;
80398;SDS011;69722;48.642;9.142;2023-05-07T05:57:28;4.22;;;2.45;;
80398;SDS011;69722;48.642;9.142;2023-05-07T05:59:53;6.90;;;2.30;;
80398;SDS011;69722;48.642;9.142;2023-05-07T06:02:19;3.28;;;1.98;;
80398;SDS011;69722;48.642;9.142;2023-05-07T06:04:45;4.65;;;2.22;;
80398;SDS011;69722;48.642;9.142;2023-05-07T06:07:10;6.68;;;2.50;;
80398;SDS011;69722;48.642;9.142;2023-05-07T06:09:36;4.45;;;2.28;;
80398;SDS011;69722;48.642;9.142;2023-05-07T06:12:01;3.85;;;2.25;;
80398;SDS011;69722;48.642;9.142;2023-05-07T06:14:27;4.22;;;2.30;;
80398;SDS011;69722;48.642;9.142;2023-05-07T06:16:52;2.80;;;2.10;;
80398;SDS011;69722;48.642;9.142;2023-05-07T06:19:17;4.30;;;2.00;;
80398;SDS011;69722;48.642;9.142;2023-05-07T06:21:48;7.00;;;2.10;;
80398;SDS011;69722;48.642;9.142;2023-05-07T06:24:13;5.57;;;2.28;;
80398;SDS011;69722;48.642;9.142;2023-05-07T06:26:39;5.03;;;2.37;;
80398;SDS011;69722;48.642;9.142;2023-05-07T06:29:04;3.80;;;2.05;;
80398;SDS011;69722;48.642;9.142;2023-05-07T06:31:30;4.88;;;2.15;;
80398;SDS011;69722;48.642;9.142;2023-05-07T06:33:56;4.07;;;2.10;;
80398;SDS011;69722;48.642;9.142;2023-05-07T06:36:22;5.20;;;2.20;;
80398;SDS011;69722;48.642;9.142;2023-05-07T06:38:47;5.03;;;2.20;;
80398;SDS011;69722;48.642;9.142;2023-05-07T06:41:12;4.83;;;2.10;;
80398;SDS011;69722;48.642;9.142;2023-05-07T06:43:38;3.30;;;2.10;;
80398;SDS011;69722;48.642;9.142;2023-05-07T06:46:03;4.83;;;2.10;;
80398;SDS011;69722;48.642;9.142;2023-05-07T06:48:29;3.73;;;2.20;;
80398;SDS011;69722;48.642;9.142;2023-05-07T06:50:54;4.18;;;1.98;;
80398;SDS011;69722;48.642;9.142;2023-05-07T06:53:20;3.80;;;2.15;;
80398;SDS011;69722;48.642;9.142;2023-05-07T06:55:46;3.75;;;2.20;;
80398;SDS011;69722;48.642;9.142;2023-05-07T06:58:11;3.30;;;2.15;;
80398;SDS011;69722;48.642;9.142;2023-05-07T07:00:37;2.90;;;2.28;;
80398;SDS011;69722;48.642;9.142;2023-05-07T07:03:02;3.92;;;2.10;;
80398;SDS011;69722;48.642;9.142;2023-05-07T07:05:27;3.45;;;2.30;;
80398;SDS011;69722;48.642;9.142;2023-05-07T07:07:53;8.60;;;1.90;;
80398;SDS011;69722;48.642;9.142;2023-05-07T07:10:21;3.03;;;2.00;;
80398;SDS011;69722;48.642;9.142;2023-05-07T07:12:48;3.58;;;1.95;;
80398;SDS011;69722;48.642;9.142;2023-05-07T07:15:14;4.40;;;1.80;;
80398;SDS011;69722;48.642;9.142;2023-05-07T07:17:40;6.40;;;2.00;;
80398;SDS011;69722;48.642;9.142;2023-05-07T07:20:05;5.53;;;1.90;;
80398;SDS011;69722;48.642;9.142;2023-05-07T07:22:31;3.47;;;2.05;;
80398;SDS011;69722;48.642;9.142;2023-05-07T07:24:56;2.60;;;1.73;;
80398;SDS011;69722;48.642;9.142;2023-05-07T07:27:22;4.63;;;2.00;;
80398;SDS011;69722;48.642;9.142;2023-05-07T07:29:47;8.53;;;1.80;;
80398;SDS011;69722;48.642;9.142;2023-05-07T07:32:12;3.05;;;1.98;;
80398;SDS011;69722;48.642;9.142;2023-05-07T07:34:38;5.77;;;2.17;;
80398;SDS011;69722;48.642;9.142;2023-05-07T07:37:03;3.65;;;1.88;;
80398;SDS011;69722;48.642;9.142;2023-05-07T07:41:56;3.42;;;2.10;;
80398;SDS011;69722;48.642;9.142;2023-05-07T07:44:22;4.83;;;1.97;;
80398;SDS011;69722;48.642;9.142;2023-05-07T07:46:47;5.77;;;2.23;;
80398;SDS011;69722;48.642;9.142;2023-05-07T07:49:12;3.13;;;1.90;;
80398;SDS011;69722;48.642;9.142;2023-05-07T07:51:38;6.97;;;1.80;;
80398;SDS011;69722;48.642;9.142;2023-05-07T07:54:03;5.05;;;1.95;;
80398;SDS011;69722;48.642;9.142;2023-05-07T07:56:29;3.60;;;1.92;;
80398;SDS011;69722;48.642;9.142;2023-05-07T07:58:54;4.00;;;2.22;;
80398;SDS011;69722;48.642;9.142;2023-05-07T08:01:20;2.37;;;1.70;;
80398;SDS011;69722;48.642;9.142;2023-05-07T08:03:45;2.97;;;1.90;;
80398;SDS011;69722;48.642;9.142;2023-05-07T08:06:10;3.00;;;1.70;;
80398;SDS011;69722;48.642;9.142;2023-05-07T08:08:36;4.07;;;2.10;;
80398;SDS011;69722;48.642;9.142;2023-05-07T08:11:01;3.30;;;2.20;;
80398;SDS011;69722;48.642;9.142;2023-05-07T08:13:26;2.53;;;1.73;;
80398;SDS011;69722;48.642;9.142;2023-05-07T08:15:52;4.28;;;2.60;;
80398;SDS011;69722;48.642;9.142;2023-05-07T08:18:18;4.55;;;2.63;;
80398;SDS011;69722;48.642;9.142;2023-05-07T08:20:43;10.30;;;1.93;;
80398;SDS011;69722;48.642;9.142;2023-05-07T08:23:08;4.87;;;2.00;;
80398;SDS011;69722;48.642;9.142;2023-05-07T08:25:34;3.43;;;2.00;;
80398;SDS011;69722;48.642;9.142;2023-05-07T08:27:59;2.88;;;1.85;;
80398;SDS011;69722;48.642;9.142;2023-05-07T08:30:25;2.85;;;1.50;;
80398;SDS011;69722;48.642;9.142;2023-05-07T08:32:51;3.33;;;1.90;;
80398;SDS011;69722;48.642;9.142;2023-05-07T08:35:16;2.07;;;1.60;;
80398;SDS011;69722;48.642;9.142;2023-05-07T08:37:41;3.60;;;2.00;;
80398;SDS011;69722;48.642;9.142;2023-05-07T08:40:07;3.50;;;2.10;;
80398;SDS011;69722;48.642;9.142;2023-05-07T08:42:33;4.30;;;1.73;;
80398;SDS011;69722;48.642;9.142;2023-05-07T08:45:00;3.22;;;1.85;;
80398;SDS011;69722;48.642;9.142;2023-05-07T08:47:32;5.15;;;1.90;;
80398;SDS011;69722;48.642;9.142;2023-05-07T08:50:00;5.28;;;1.80;;
80398;SDS011;69722;48.642;9.142;2023-05-07T08:52:27;2.60;;;1.83;;
80398;SDS011;69722;48.642;9.142;2023-05-07T08:54:52;4.50;;;1.77;;
80398;SDS011;69722;48.642;9.142;2023-05-07T08:57:17;6.13;;;1.80;;
80398;SDS011;69722;48.642;9.142;2023-05-07T08:59:44;3.78;;;1.88;;
80398;SDS011;69722;48.642;9.142;2023-05-07T09:02:10;3.37;;;1.70;;
80398;SDS011;69722;48.642;9.142;2023-05-07T09:04:36;2.97;;;1.60;;
80398;SDS011;69722;48.642;9.142;2023-05-07T09:07:01;5.83;;;1.83;;
80398;SDS011;69722;48.642;9.142;2023-05-07T09:09:31;2.92;;;1.85;;
80398;SDS011;69722;48.642;9.142;2023-05-07T09:14:25;3.08;;;1.70;;
80398;SDS011;69722;48.642;9.142;2023-05-07T09:16:53;3.17;;;1.60;;
80398;SDS011;69722;48.642;9.142;2023-05-07T09:19:26;4.35;;;2.17;;
80398;SDS011;69722;48.642;9.142;2023-05-07T09:21:57;3.33;;;1.90;;
80398;SDS011;69722;48.642;9.142;2023-05-07T09:24:24;2.60;;;1.73;;
80398;SDS011;69722;48.642;9.142;2023-05-07T09:26:49;2.60;;;1.50;;
80398;SDS011;69722;48.642;9.142;2023-05-07T09:29:15;3.13;;;1.70;;
80398;SDS011;69722;48.642;9.142;2023-05-07T09:31:40;2.58;;;1.92;;
80398;SDS011;69722;48.642;9.142;2023-05-07T09:34:06;2.53;;;1.40;;
80398;SDS011;69722;48.642;9.142;2023-05-07T09:36:31;2.92;;;1.88;;
80398;SDS011;69722;48.642;9.142;2023-05-07T09:38:58;3.33;;;1.60;;
80398;SDS011;69722;48.642;9.142;2023-05-07T09:41:24;3.92;;;1.70;;
80398;SDS011;69722;48.642;9.142;2023-05-07T09:43:53;3.27;;;1.70;;
80398;SDS011;69722;48.642;9.142;2023-05-07T09:46:19;2.38;;;1.60;;
80398;SDS011;69722;48.642;9.142;2023-05-07T09:48:49;4.20;;;1.83;;
80398;SDS011;69722;48.642;9.142;2023-05-07T09:51:25;2.78;;;1.90;;
80398;SDS011;69722;48.642;9.142;2023-05-07T09:53:54;4.10;;;1.75;;
80398;SDS011;69722;48.642;9.142;2023-05-07T09:56:19;2.97;;;1.73;;
80398;SDS011;69722;48.642;9.142;2023-05-07T09:58:46;2.53;;;1.75;;
80398;SDS011;69722;48.642;9.142;2023-05-07T10:01:12;3.47;;;1.85;;
80398;SDS011;69722;48.642;9.142;2023-05-07T10:03:38;3.60;;;1.80;;
80398;SDS011;69722;48.642;9.142;2023-05-07T10:06:05;3.42;;;1.98;;
80398;SDS011;69722;48.642;9.142;2023-05-07T10:08:30;2.60;;;1.83;;
80398;SDS011;69722;48.642;9.142;2023-05-07T10:10:56;10.00;;;1.75;;
80398;SDS011;69722;48.642;9.142;2023-05-07T10:13:21;5.22;;;1.98;;
80398;SDS011;69722;48.642;9.142;2023-05-07T10:15:47;2.95;;;1.60;;
80398;SDS011;69722;48.642;9.142;2023-05-07T10:18:12;4.15;;;1.60;;
80398;SDS011;69722;48.642;9.142;2023-05-07T10:20:38;2.60;;;1.60;;
80398;SDS011;69722;48.642;9.142;2023-05-07T10:23:04;2.33;;;1.73;;
80398;SDS011;69722;48.642;9.142;2023-05-07T10:25:30;3.17;;;1.83;;
80398;SDS011;69722;48.642;9.142;2023-05-07T10:27:57;2.60;;;1.70;;
80398;SDS011;69722;48.642;9.142;2023-05-07T10:33:11;3.55;;;1.60;;
80398;SDS011;69722;48.642;9.142;2023-05-07T10:35:40;2.30;;;1.42;;
80398;SDS011;69722;48.642;9.142;2023-05-07T10:38:06;2.35;;;1.65;;
80398;SDS011;69722;48.642;9.142;2023-05-07T10:40:33;3.67;;;1.90;;
80398;SDS011;69722;48.642;9.142;2023-05-07T10:43:00;2.65;;;1.77;;
80398;SDS011;69722;48.642;9.142;2023-05-07T10:45:26;2.30;;;1.42;;
80398;SDS011;69722;48.642;9.142;2023-05-07T10:50:50;2.35;;;1.60;;
80398;SDS011;69722;48.642;9.142;2023-05-07T10:53:45;2.70;;;1.63;;
80398;SDS011;69722;48.642;9.142;2023-05-07T10:58:45;2.50;;;1.65;;
80398;SDS011;69722;48.642;9.142;2023-05-07T11:01:10;2.15;;;1.63;;
80398;SDS011;69722;48.642;9.142;2023-05-07T11:03:37;3.10;;;1.83;;
80398;SDS011;69722;48.642;9.142;2023-05-07T11:06:39;2.92;;;1.83;;
80398;SDS011;69722;48.642;9.142;2023-05-07T11:09:04;3.38;;;1.80;;
80398;SDS011;69722;48.642;9.142;2023-05-07T11:11:49;2.72;;;1.63;;
80398;SDS011;69722;48.642;9.142;2023-05-07T11:17:11;2.75;;;1.73;;
80398;SDS011;69722;48.642;9.142;2023-05-07T11:19:53;2.45;;;1.55;;
80398;SDS011;69722;48.642;9.142;2023-05-07T11:25:00;2.30;;;1.90;;
80398;SDS011;69722;48.642;9.142;2023-05-07T11:27:29;2.47;;;1.52;;
80398;SDS011;69722;48.642;9.142;2023-05-07T11:29:55;2.40;;;1.70;;
80398;SDS011;69722;48.642;9.142;2023-05-07T11:32:24;2.53;;;1.63;;
80398;SDS011;69722;48.642;9.142;2023-05-07T11:34:53;4.00;;;1.92;;
80398;SDS011;69722;48.642;9.142;2023-05-07T11:37:20;3.88;;;1.70;;
80398;SDS011;69722;48.642;9.142;2023-05-07T11:39:47;2.50;;;1.60;;
80398;SDS011;69722;48.642;9.142;2023-05-07T11:42:31;2.75;;;1.65;;
80398;SDS011;69722;48.642;9.142;2023-05-07T11:44:58;2.17;;;1.70;;
80398;SDS011;69722;48.642;9.142;2023-05-07T11:47:24;4.13;;;1.95;;
80398;SDS011;69722;48.642;9.142;2023-05-07T11:49:51;5.18;;;1.90;;
80398;SDS011;69722;48.642;9.142;2023-05-07T11:52:18;6.85;;;1.70;;
80398;SDS011;69722;48.642;9.142;2023-05-07T11:54:50;5.80;;;1.92;;
80398;SDS011;69722;48.642;9.142;2023-05-07T11:57:20;5.35;;;2.25;;
80398;SDS011;69722;48.642;9.142;2023-05-07T11:59:46;2.53;;;1.70;;
80398;SDS011;69722;48.642;9.142;2023-05-07T12:02:16;3.83;;;1.83;;
80398;SDS011;69722;48.642;9.142;2023-05-07T12:04:42;3.85;;;1.73;;
80398;SDS011;69722;48.642;9.142;2023-05-07T12:07:11;4.80;;;1.83;;
80398;SDS011;69722;48.642;9.142;2023-05-07T12:09:37;4.43;;;1.90;;
80398;SDS011;69722;48.642;9.142;2023-05-07T12:12:03;6.18;;;2.35;;
80398;SDS011;69722;48.642;9.142;2023-05-07T12:14:29;3.45;;;1.77;;
80398;SDS011;69722;48.642;9.142;2023-05-07T12:16:55;8.68;;;1.85;;
80398;SDS011;69722;48.642;9.142;2023-05-07T12:19:21;2.20;;;1.52;;
80398;SDS011;69722;48.642;9.142;2023-05-07T12:21:46;2.90;;;1.85;;
80398;SDS011;69722;48.642;9.142;2023-05-07T12:24:11;2.63;;;1.77;;
80398;SDS011;69722;48.642;9.142;2023-05-07T12:26:39;2.85;;;1.90;;
80398;SDS011;69722;48.642;9.142;2023-05-07T12:29:05;3.63;;;1.75;;
80398;SDS011;69722;48.642;9.142;2023-05-07T12:31:31;2.92;;;1.73;;
80398;SDS011;69722;48.642;9.142;2023-05-07T12:33:56;2.33;;;1.50;;
80398;SDS011;69722;48.642;9.142;2023-05-07T12:36:22;5.03;;;1.90;;
80398;SDS011;69722;48.642;9.142;2023-05-07T12:38:49;4.68;;;1.95;;
80398;SDS011;69722;48.642;9.142;2023-05-07T12:43:40;5.40;;;1.80;;
80398;SDS011;69722;48.642;9.142;2023-05-07T12:46:09;5.07;;;1.75;;
80398;SDS011;69722;48.642;9.142;2023-05-07T12:48:35;2.53;;;1.70;;
80398;SDS011;69722;48.642;9.142;2023-05-07T12:51:02;3.25;;;1.80;;
80398;SDS011;69722;48.642;9.142;2023-05-07T12:53:28;3.60;;;1.75;;
80398;SDS011;69722;48.642;9.142;2023-05-07T12:55:55;2.47;;;1.77;;
80398;SDS011;69722;48.642;9.142;2023-05-07T13:00:52;2.90;;;1.50;;
80398;SDS011;69722;48.642;9.142;2023-05-07T13:03:24;2.97;;;1.77;;
80398;SDS011;69722;48.642;9.142;2023-05-07T13:05:54;3.55;;;1.65;;
80398;SDS011;69722;48.642;9.142;2023-05-07T13:10:53;7.03;;;2.05;;
80398;SDS011;69722;48.642;9.142;2023-05-07T13:13:19;3.35;;;1.80;;
80398;SDS011;69722;48.642;9.142;2023-05-07T13:15:45;2.72;;;1.38;;
80398;SDS011;69722;48.642;9.142;2023-05-07T13:18:11;3.25;;;1.63;;
80398;SDS011;69722;48.642;9.142;2023-05-07T13:20:37;3.73;;;2.00;;
80398;SDS011;69722;48.642;9.142;2023-05-07T13:23:03;2.60;;;1.70;;
80398;SDS011;69722;48.642;9.142;2023-05-07T13:25:29;4.63;;;1.70;;
80398;SDS011;69722;48.642;9.142;2023-05-07T13:27:56;3.17;;;1.83;;
80398;SDS011;69722;48.642;9.142;2023-05-07T13:30:21;2.03;;;1.50;;
80398;SDS011;69722;48.642;9.142;2023-05-07T13:32:47;4.50;;;1.93;;
80398;SDS011;69722;48.642;9.142;2023-05-07T13:35:12;3.47;;;2.05;;
80398;SDS011;69722;48.642;9.142;2023-05-07T13:37:38;4.70;;;1.80;;
80398;SDS011;69722;48.642;9.142;2023-05-07T13:40:03;3.20;;;2.20;;
80398;SDS011;69722;48.642;9.142;2023-05-07T13:42:29;3.38;;;1.70;;
80398;SDS011;69722;48.642;9.142;2023-05-07T13:44:56;2.60;;;1.55;;
80398;SDS011;69722;48.642;9.142;2023-05-07T13:47:22;2.58;;;1.55;;
80398;SDS011;69722;48.642;9.142;2023-05-07T13:49:47;3.58;;;1.88;;
80398;SDS011;69722;48.642;9.142;2023-05-07T13:52:14;3.25;;;1.90;;
80398;SDS011;69722;48.642;9.142;2023-05-07T13:54:40;2.30;;;1.48;;
80398;SDS011;69722;48.642;9.142;2023-05-07T13:57:05;2.97;;;1.70;;
80398;SDS011;69722;48.642;9.142;2023-05-07T13:59:31;3.92;;;1.80;;
80398;SDS011;69722;48.642;9.142;2023-05-07T14:01:56;3.10;;;1.63;;
80398;SDS011;69722;48.642;9.142;2023-05-07T14:04:21;7.20;;;1.73;;
80398;SDS011;69722;48.642;9.142;2023-05-07T14:06:47;6.07;;;2.00;;
80398;SDS011;69722;48.642;9.142;2023-05-07T14:09:13;4.07;;;1.83;;
80398;SDS011;69722;48.642;9.142;2023-05-07T14:11:38;3.17;;;1.70;;
80398;SDS011;69722;48.642;9.142;2023-05-07T14:14:04;3.50;;;1.90;;
80398;SDS011;69722;48.642;9.142;2023-05-07T14:16:30;4.28;;;1.80;;
80398;SDS011;69722;48.642;9.142;2023-05-07T14:18:55;4.47;;;1.65;;
80398;SDS011;69722;48.642;9.142;2023-05-07T14:21:21;5.13;;;2.03;;
80398;SDS011;69722;48.642;9.142;2023-05-07T14:23:46;2.47;;;1.70;;
80398;SDS011;69722;48.642;9.142;2023-05-07T14:26:12;3.85;;;1.90;;
80398;SDS011;69722;48.642;9.142;2023-05-07T14:28:37;3.00;;;1.80;;
80398;SDS011;69722;48.642;9.142;2023-05-07T14:31:04;4.28;;;1.80;;
80398;SDS011;69722;48.642;9.142;2023-05-07T14:33:29;3.75;;;1.85;;
80398;SDS011;69722;48.642;9.142;2023-05-07T14:35:55;2.53;;;1.77;;
80398;SDS011;69722;48.642;9.142;2023-05-07T14:38:20;2.60;;;1.90;;
80398;SDS011;69722;48.642;9.142;2023-05-07T14:40:45;2.30;;;1.60;;
80398;SDS011;69722;48.642;9.142;2023-05-07T14:43:11;4.80;;;1.90;;
80398;SDS011;69722;48.642;9.142;2023-05-07T14:45:37;5.43;;;2.25;;
80398;SDS011;69722;48.642;9.142;2023-05-07T14:48:03;2.72;;;1.92;;
80398;SDS011;69722;48.642;9.142;2023-05-07T14:50:28;4.28;;;2.10;;
80398;SDS011;69722;48.642;9.142;2023-05-07T14:52:54;2.77;;;1.70;;
80398;SDS011;69722;48.642;9.142;2023-05-07T14:55:19;3.38;;;1.80;;
80398;SDS011;69722;48.642;9.142;2023-05-07T14:57:45;3.53;;;2.03;;
80398;SDS011;69722;48.642;9.142;2023-05-07T15:00:10;2.40;;;1.70;;
80398;SDS011;69722;48.642;9.142;2023-05-07T15:02:36;4.78;;;1.77;;
80398;SDS011;69722;48.642;9.142;2023-05-07T15:05:05;2.77;;;1.80;;
80398;SDS011;69722;48.642;9.142;2023-05-07T15:07:30;2.85;;;1.88;;
80398;SDS011;69722;48.642;9.142;2023-05-07T15:09:59;3.72;;;1.80;;
80398;SDS011;69722;48.642;9.142;2023-05-07T15:12:24;6.40;;;2.78;;